Time;durP1;ratioP1;P1;durP2;ratioP2;P2;SDS_P1;SDS_P2;PMS_P1;PMS_P2;Temp;Humidity;BMP_temperature;BMP_pressure;BME280_temperature;BME280_humidity;BME280_pressure;Samples;Min_cycle;Max_cycle;Signal;HPM_P1;HPM_P2
2023/02/04 00:00:07;;;;;;;35.95;7.70;;;9.90;85.70;;;;;;5107002;28;20047;-55
2023/02/04 00:02:33;;;;;;;41.72;7.97;;;9.90;85.70;;;;;;5106906;28;20032;-55
2023/02/04 00:04:59;;;;;;;51.92;7.88;;;9.90;85.80;;;;;;5106709;28;20035;-55
2023/02/04 00:07:25;;;;;;;32.75;7.03;;;9.90;85.90;;;;;;5106798;28;20110;-56
2023/02/04 00:09:50;;;;;;;48.33;8.77;;;10.00;86.00;;;;;;5106689;28;20081;-56
2023/02/04 00:12:16;;;;;;;32.70;7.13;;;9.80;85.90;;;;;;5108364;28;20032;-56
2023/02/04 00:14:41;;;;;;;38.28;7.70;;;9.80;86.00;;;;;;5106629;28;20384;-56
2023/02/04 00:17:09;;;;;;;33.05;6.53;;;9.80;86.10;;;;;;5106501;28;20028;-56
2023/02/04 00:19:35;;;;;;;45.35;7.50;;;9.80;86.10;;;;;;5106539;28;20032;-56
2023/02/04 00:22:02;;;;;;;36.05;7.85;;;9.80;86.20;;;;;;5106480;28;20031;-56
2023/02/04 00:24:28;;;;;;;44.30;7.07;;;9.80;86.20;;;;;;5089836;28;20028;-56
2023/02/04 00:26:53;;;;;;;38.33;6.63;;;9.80;86.30;;;;;;5106700;28;20476;-56
2023/02/04 00:29:19;;;;;;;34.78;7.30;;;9.80;86.40;;;;;;5106493;28;20036;-56
2023/02/04 00:31:44;;;;;;;31.75;6.22;;;9.80;86.40;;;;;;5106739;28;20070;-55
2023/02/04 00:34:10;;;;;;;32.45;6.68;;;9.80;86.40;;;;;;5106354;28;20032;-56
2023/02/04 00:36:36;;;;;;;30.45;6.50;;;9.70;86.30;;;;;;5105873;28;20031;-56
2023/02/04 00:39:01;;;;;;;30.85;6.45;;;9.70;86.40;;;;;;5107646;28;20173;-56
2023/02/04 00:41:27;;;;;;;38.65;6.20;;;9.70;86.50;;;;;;5107803;28;20032;-56
2023/02/04 00:43:52;;;;;;;32.50;6.20;;;9.70;86.60;;;;;;5107326;28;20067;-56
2023/02/04 00:46:18;;;;;;;23.85;6.70;;;9.70;87.20;;;;;;5106172;28;20044;-56
2023/02/04 00:48:43;;;;;;;24.92;5.95;;;9.70;86.60;;;;;;5105910;28;20032;-55
2023/02/04 00:51:09;;;;;;;28.58;6.28;;;9.70;86.60;;;;;;5107555;28;20436;-56
2023/02/04 00:53:34;;;;;;;23.95;6.53;;;9.70;86.80;;;;;;5105852;28;20020;-56
2023/02/04 00:56:00;;;;;;;18.92;6.05;;;9.70;86.80;;;;;;5106864;28;20092;-56
2023/02/04 00:58:25;;;;;;;23.77;5.68;;;9.60;86.80;;;;;;5105986;28;20012;-55
2023/02/04 01:00:51;;;;;;;29.20;6.15;;;9.60;86.80;;;;;;5088690;28;20047;-56
2023/02/04 01:03:16;;;;;;;26.67;5.57;;;9.60;86.90;;;;;;5105550;28;20032;-55
2023/02/04 01:05:42;;;;;;;24.92;5.38;;;9.60;87.00;;;;;;5105564;28;20024;-56
2023/02/04 01:08:07;;;;;;;34.97;6.65;;;9.60;87.00;;;;;;5105350;28;20038;-56
2023/02/04 01:10:33;;;;;;;27.05;5.47;;;9.60;87.10;;;;;;5105462;28;20048;-56
2023/02/04 01:12:59;;;;;;;33.10;5.72;;;9.60;87.10;;;;;;5105474;28;20049;-56
2023/02/04 01:15:24;;;;;;;20.35;4.97;;;9.60;87.20;;;;;;5105620;28;20031;-56
2023/02/04 01:17:50;;;;;;;24.25;5.07;;;9.60;87.20;;;;;;5107243;28;20422;-56
2023/02/04 01:20:15;;;;;;;22.70;5.70;;;9.50;87.20;;;;;;5105124;28;20373;-56
2023/02/04 01:22:41;;;;;;;19.83;5.00;;;9.50;87.30;;;;;;5106861;28;20039;-56
2023/02/04 01:25:07;;;;;;;19.15;5.10;;;9.50;87.30;;;;;;5106688;28;20028;-56
2023/02/04 01:27:32;;;;;;;20.08;5.00;;;9.50;87.40;;;;;;5106499;28;20032;-56
2023/02/04 01:29:58;;;;;;;34.55;5.47;;;9.50;87.50;;;;;;5105240;28;20071;-56
2023/02/04 01:32:23;;;;;;;22.33;4.55;;;9.50;87.50;;;;;;5106694;28;20070;-56
2023/02/04 01:34:49;;;;;;;19.83;5.00;;;9.50;87.70;;;;;;5104885;28;20036;-56
2023/02/04 01:37:14;;;;;;;22.50;4.25;;;9.50;87.80;;;;;;5106538;28;20028;-56
2023/02/04 01:39:40;;;;;;;25.80;5.35;;;9.50;87.90;;;;;;5105998;28;20035;-56
2023/02/04 01:42:05;;;;;;;24.85;4.78;;;9.40;87.80;;;;;;5106233;28;20395;-55
2023/02/04 01:44:31;;;;;;;17.48;5.00;;;9.40;87.80;;;;;;5105014;28;20034;-58
2023/02/04 01:46:57;;;;;;;18.80;4.57;;;9.50;87.90;;;;;;5104778;28;20028;-58
2023/02/04 01:49:22;;;;;;;19.80;4.32;;;9.40;87.80;;;;;;5087793;28;20132;-58
2023/02/04 01:51:48;;;;;;;17.17;4.55;;;9.40;87.90;;;;;;5104916;28;20420;-58
2023/02/04 01:54:14;;;;;;;17.75;3.90;;;9.40;88.00;;;;;;5104560;28;20341;-58
2023/02/04 01:56:41;;;;;;;20.95;4.47;;;9.40;88.10;;;;;;5104759;28;20089;-58
2023/02/04 01:59:13;;;;;;;20.42;4.55;;;9.40;88.10;;;;;;5104603;28;20043;-58
2023/02/04 02:01:50;;;;;;;14.88;4.18;;;9.40;88.20;;;;;;5104632;28;20031;-58
2023/02/04 02:04:29;;;;;;;17.45;3.55;;;9.40;88.90;;;;;;5106076;28;20087;-58
2023/02/04 02:07:00;;;;;;;16.55;4.05;;;9.40;88.40;;;;;;5104312;28;20016;-58
2023/02/04 02:09:26;;;;;;;14.82;3.55;;;9.40;88.40;;;;;;5104221;28;20032;-58
2023/02/04 02:11:52;;;;;;;20.67;4.30;;;9.40;88.50;;;;;;5104506;28;20103;-58
2023/02/04 02:14:17;;;;;;;14.00;3.55;;;9.40;88.60;;;;;;5104291;28;20035;-58
2023/02/04 02:16:43;;;;;;;17.20;3.97;;;9.30;88.60;;;;;;5104365;28;20035;-58
2023/02/04 02:19:10;;;;;;;23.33;5.05;;;9.30;88.60;;;;;;5104398;28;20047;-58
2023/02/04 02:21:57;;;;;;;11.98;3.33;;;9.30;88.70;;;;;;5104480;28;20027;-58
2023/02/04 02:24:30;;;;;;;14.07;3.70;;;9.30;88.80;;;;;;5104251;28;20050;-58
2023/02/04 02:26:57;;;;;;;18.13;3.50;;;9.30;88.90;;;;;;5105528;28;20081;-58
2023/02/04 02:29:22;;;;;;;14.05;3.95;;;9.30;89.00;;;;;;5104149;28;20032;-58
2023/02/04 02:31:48;;;;;;;19.52;4.35;;;9.30;89.00;;;;;;5104340;28;20038;-58
2023/02/04 02:34:13;;;;;;;15.40;3.85;;;9.20;89.00;;;;;;5104346;28;20054;-58
2023/02/04 02:36:39;;;;;;;13.82;4.32;;;9.20;89.10;;;;;;5103982;28;20050;-58
2023/02/04 02:39:04;;;;;;;10.65;4.00;;;9.20;89.10;;;;;;5105230;28;20383;-58
2023/02/04 02:41:30;;;;;;;11.07;3.70;;;9.20;89.20;;;;;;5103824;28;20077;-58
2023/02/04 02:43:55;;;;;;;13.35;3.50;;;9.20;89.30;;;;;;5086954;28;20032;-58
2023/02/04 02:46:21;;;;;;;16.02;4.38;;;9.20;89.30;;;;;;5104051;28;20081;-58
2023/02/04 02:48:46;;;;;;;11.20;3.60;;;9.20;89.30;;;;;;5103911;28;20035;-58
2023/02/04 02:51:12;;;;;;;17.02;3.72;;;9.20;89.30;;;;;;5103720;28;20017;-58
2023/02/04 02:53:37;;;;;;;22.40;4.05;;;9.20;89.40;;;;;;5103897;28;20020;-58
2023/02/04 02:56:04;;;;;;;11.07;3.15;;;9.20;89.40;;;;;;5103787;28;20028;-58
2023/02/04 02:58:31;;;;;;;12.77;3.42;;;9.20;89.40;;;;;;5103711;28;20020;-58
2023/02/04 03:00:57;;;;;;;16.08;3.70;;;9.20;90.00;;;;;;5103903;28;20020;-58
2023/02/04 03:03:28;;;;;;;9.90;3.40;;;9.20;89.50;;;;;;5103803;28;20035;-59
2023/02/04 03:05:58;;;;;;;6.47;2.72;;;9.20;89.50;;;;;;5103789;28;20206;-58
2023/02/04 03:08:23;;;;;;;13.73;3.90;;;9.20;89.50;;;;;;5103792;28;20020;-58
2023/02/04 03:10:49;;;;;;;11.65;3.33;;;9.20;89.50;;;;;;5103462;28;20024;-58
2023/02/04 03:13:15;;;;;;;12.73;3.47;;;9.20;89.50;;;;;;5103836;28;20028;-58
2023/02/04 03:15:41;;;;;;;10.57;3.45;;;9.20;89.60;;;;;;5103754;28;20133;-58
2023/02/04 03:18:06;;;;;;;14.75;3.63;;;9.20;89.60;;;;;;5103450;28;20047;-58
2023/02/04 03:20:32;;;;;;;12.18;3.67;;;9.20;89.60;;;;;;5107196;28;20059;-58
2023/02/04 03:22:57;;;;;;;8.98;2.70;;;9.20;89.70;;;;;;5107673;28;20036;-58
2023/02/04 03:25:25;;;;;;;11.10;3.33;;;9.20;89.70;;;;;;5109087;28;20100;-58
2023/02/04 03:27:52;;;;;;;12.95;3.13;;;9.20;89.70;;;;;;5107892;28;20020;-58
2023/02/04 03:30:18;;;;;;;9.73;3.15;;;9.20;89.80;;;;;;5107547;28;20036;-58
2023/02/04 03:32:43;;;;;;;12.98;3.25;;;9.10;89.90;;;;;;5107527;28;20032;-58
2023/02/04 03:35:09;;;;;;;10.60;3.00;;;9.10;90.00;;;;;;5107455;28;20042;-58
2023/02/04 03:37:34;;;;;;;10.23;3.08;;;9.10;90.00;;;;;;5108616;28;20042;-58
2023/02/04 03:40:00;;;;;;;12.73;3.30;;;9.10;90.00;;;;;;5108920;28;20040;-58
2023/02/04 03:42:25;;;;;;;14.07;3.50;;;9.10;90.00;;;;;;5108799;28;20083;-58
2023/02/04 03:44:51;;;;;;;12.48;3.20;;;9.10;90.00;;;;;;5107299;28;20031;-58
2023/02/04 03:47:17;;;;;;;11.77;3.13;;;9.10;90.00;;;;;;5107250;28;20020;-58
2023/02/04 03:49:42;;;;;;;11.45;2.70;;;9.10;90.00;;;;;;5108384;28;20157;-58
2023/02/04 03:52:08;;;;;;;12.27;2.60;;;9.10;90.10;;;;;;5108718;28;20023;-58
2023/02/04 03:54:33;;;;;;;9.98;2.85;;;9.10;90.10;;;;;;5108610;28;20085;-58
2023/02/04 03:57:00;;;;;;;9.90;3.05;;;9.10;90.10;;;;;;5108304;28;20044;-58
2023/02/04 03:59:25;;;;;;;6.85;2.58;;;9.10;90.10;;;;;;5108496;28;20047;-58
2023/02/04 04:01:51;;;;;;;9.20;3.28;;;9.10;90.10;;;;;;5089951;28;20039;-58
2023/02/04 04:04:17;;;;;;;11.50;2.95;;;9.10;90.10;;;;;;5108218;28;20045;-57
2023/02/04 04:06:43;;;;;;;9.07;2.70;;;9.10;90.10;;;;;;5108210;28;20038;-58
2023/02/04 04:09:08;;;;;;;13.52;2.72;;;9.10;90.10;;;;;;5106715;28;20032;-58
2023/02/04 04:11:34;;;;;;;11.43;2.72;;;9.10;90.10;;;;;;5107732;28;20028;-58
2023/02/04 04:14:00;;;;;;;9.45;2.58;;;9.10;90.20;;;;;;5109683;28;20088;-56
2023/02/04 04:16:25;;;;;;;9.50;2.53;;;9.10;90.20;;;;;;5106625;28;20078;-58
2023/02/04 04:18:51;;;;;;;6.35;2.38;;;9.10;90.20;;;;;;5089904;28;20020;-58
2023/02/04 04:21:16;;;;;;;13.07;2.75;;;9.10;90.20;;;;;;5106528;28;20047;-58
2023/02/04 04:23:42;;;;;;;6.38;2.75;;;9.10;90.20;;;;;;5107763;28;20026;-58
2023/02/04 04:26:07;;;;;;;8.55;2.65;;;9.10;90.20;;;;;;5106464;28;20059;-58
2023/02/04 04:28:33;;;;;;;6.13;2.47;;;9.10;90.30;;;;;;5107513;28;20031;-59
2023/02/04 04:30:59;;;;;;;7.35;2.70;;;9.10;90.30;;;;;;5105799;28;20024;-58
2023/02/04 04:33:24;;;;;;;10.85;2.67;;;9.10;90.30;;;;;;5107784;28;20058;-59
2023/02/04 04:35:50;;;;;;;6.45;2.72;;;9.10;90.30;;;;;;5106090;28;20028;-58
2023/02/04 04:38:15;;;;;;;11.82;2.55;;;9.10;90.30;;;;;;5107854;28;20149;-58
2023/02/04 04:40:41;;;;;;;9.38;2.72;;;9.10;90.30;;;;;;5107705;28;20071;-58
2023/02/04 04:43:06;;;;;;;6.32;2.42;;;9.10;90.30;;;;;;5105812;28;20044;-59
2023/02/04 04:45:32;;;;;;;9.02;2.05;;;9.10;90.30;;;;;;5106039;28;20024;-58
2023/02/04 04:47:57;;;;;;;7.57;2.25;;;9.10;90.40;;;;;;5107162;28;20028;-58
2023/02/04 04:50:23;;;;;;;7.53;2.70;;;9.10;90.40;;;;;;5105924;28;20027;-58
2023/02/04 04:52:48;;;;;;;6.10;2.70;;;9.10;90.40;;;;;;5089013;28;20032;-58
2023/02/04 04:55:14;;;;;;;5.15;2.05;;;9.00;90.40;;;;;;5105682;28;20046;-58
2023/02/04 04:57:39;;;;;;;9.27;2.58;;;9.00;90.40;;;;;;5089082;28;20058;-58
2023/02/04 05:00:06;;;;;;;7.68;2.08;;;9.10;90.40;;;;;;5105627;28;20035;-58
2023/02/04 05:02:31;;;;;;;8.93;2.35;;;9.00;90.40;;;;;;5105479;28;20089;-58
2023/02/04 05:04:57;;;;;;;5.28;2.50;;;9.00;90.40;;;;;;5088912;28;20028;-58
2023/02/04 05:07:22;;;;;;;5.60;2.10;;;9.00;90.50;;;;;;5105618;28;20035;-58
2023/02/04 05:09:48;;;;;;;7.78;2.53;;;9.00;90.50;;;;;;5105486;28;20032;-59
2023/02/04 05:12:13;;;;;;;10.65;2.55;;;9.00;90.50;;;;;;5105472;28;20043;-59
2023/02/04 05:14:39;;;;;;;9.55;2.92;;;9.00;90.50;;;;;;5106639;28;20020;-59
2023/02/04 05:17:05;;;;;;;9.23;2.60;;;9.00;90.50;;;;;;5105578;28;20040;-58
2023/02/04 05:19:30;;;;;;;8.48;2.97;;;9.00;90.60;;;;;;5106866;28;20032;-58
2023/02/04 05:21:56;;;;;;;9.73;3.08;;;9.00;90.60;;;;;;5105331;28;20024;-58
2023/02/04 05:24:22;;;;;;;6.63;3.00;;;9.10;90.60;;;;;;5106547;28;20077;-58
2023/02/04 05:26:47;;;;;;;6.05;2.65;;;9.00;90.70;;;;;;5105076;28;20024;-58
2023/02/04 05:29:13;;;;;;;6.15;2.50;;;9.00;90.70;;;;;;5106588;28;20016;-58
2023/02/04 05:31:39;;;;;;;7.68;2.40;;;9.00;90.70;;;;;;5106642;28;20444;-58
2023/02/04 05:34:04;;;;;;;8.73;3.20;;;9.00;90.70;;;;;;5104955;28;20392;-58
2023/02/04 05:36:30;;;;;;;9.05;2.90;;;9.00;90.70;;;;;;5106618;28;20050;-58
2023/02/04 05:38:55;;;;;;;25.85;5.20;;;9.00;90.70;;;;;;5105063;28;20058;-58
2023/02/04 05:41:21;;;;;;;25.77;3.78;;;9.00;90.70;;;;;;5106114;28;20040;-58
2023/02/04 05:43:46;;;;;;;11.85;3.42;;;9.10;90.80;;;;;;5103994;28;20084;-58
2023/02/04 05:46:12;;;;;;;16.83;4.10;;;9.10;90.90;;;;;;5106192;28;20020;-58
2023/02/04 05:48:39;;;;;;;18.80;3.97;;;9.10;91.10;;;;;;5104799;28;20032;-58
2023/02/04 05:51:04;;;;;;;33.72;5.65;;;9.10;90.80;;;;;;5106275;28;20028;-58
2023/02/04 05:53:30;;;;;;;18.98;4.13;;;9.10;90.80;;;;;;5104556;28;20047;-58
2023/02/04 05:55:55;;;;;;;26.45;4.78;;;9.10;90.80;;;;;;5104793;28;20040;-58
2023/02/04 05:58:21;;;;;;;21.30;5.43;;;9.10;90.80;;;;;;5105965;28;20028;-58
2023/02/04 06:00:46;;;;;;;16.70;4.13;;;9.10;90.90;;;;;;5106339;28;20020;-58
2023/02/04 06:03:13;;;;;;;18.98;4.32;;;9.10;90.80;;;;;;5104731;28;20043;-58
2023/02/04 06:05:39;;;;;;;22.25;4.50;;;9.10;90.80;;;;;;5087569;28;20027;-58
2023/02/04 06:08:04;;;;;;;28.25;4.30;;;9.10;90.80;;;;;;5105908;28;20024;-58
2023/02/04 06:10:30;;;;;;;34.72;5.22;;;9.10;90.90;;;;;;5105926;28;20153;-58
2023/02/04 06:12:55;;;;;;;20.23;4.20;;;9.10;90.80;;;;;;5105732;28;20127;-58
2023/02/04 06:15:21;;;;;;;17.05;3.80;;;9.10;90.80;;;;;;5104694;28;20111;-58
2023/02/04 06:17:46;;;;;;;23.40;5.15;;;9.10;90.80;;;;;;5104281;28;20036;-58
2023/02/04 06:20:13;;;;;;;60.92;8.88;;;9.10;90.80;;;;;;5104357;28;20027;-58
2023/02/04 06:22:38;;;;;;;40.42;6.68;;;9.10;90.90;;;;;;5104310;28;20032;-58
2023/02/04 06:25:04;;;;;;;41.00;7.57;;;9.10;90.90;;;;;;5104178;28;20041;-58
2023/02/04 06:27:29;;;;;;;32.60;4.95;;;9.20;91.00;;;;;;5104098;28;20028;-58
2023/02/04 06:29:56;;;;;;;32.88;5.45;;;9.10;91.00;;;;;;5104134;28;20028;-58
2023/02/04 06:32:21;;;;;;;23.35;4.63;;;9.10;91.10;;;;;;5104058;28;20042;-58
2023/02/04 06:34:47;;;;;;;27.77;4.55;;;9.20;91.10;;;;;;5104168;28;20095;-58
2023/02/04 06:37:14;;;;;;;19.10;4.75;;;9.10;91.10;;;;;;5103937;28;20035;-58
2023/02/04 06:39:40;;;;;;;22.13;4.25;;;9.10;91.20;;;;;;5104097;28;20413;-58
2023/02/04 06:42:05;;;;;;;13.90;3.58;;;9.10;91.20;;;;;;5104209;28;20048;-58
2023/02/04 06:44:31;;;;;;;22.20;4.20;;;9.10;91.20;;;;;;5103541;28;20054;-58
2023/02/04 06:46:56;;;;;;;23.92;4.72;;;9.10;91.40;;;;;;5103999;28;20084;-58
2023/02/04 06:49:24;;;;;;;19.35;3.95;;;9.10;91.40;;;;;;5104949;28;20032;-57
2023/02/04 06:51:49;;;;;;;16.40;4.15;;;9.10;91.50;;;;;;5103549;28;20031;-58
2023/02/04 06:54:15;;;;;;;25.17;3.85;;;9.10;91.60;;;;;;5104817;28;20032;-59
2023/02/04 06:56:42;;;;;;;15.38;3.75;;;9.10;91.60;;;;;;5103466;28;20099;-58
2023/02/04 06:59:08;;;;;;;27.08;4.30;;;9.10;91.70;;;;;;5104865;28;20028;-59
2023/02/04 07:01:33;;;;;;;16.95;3.90;;;9.10;91.80;;;;;;5103798;28;20079;-59
2023/02/04 07:03:59;;;;;;;15.95;3.80;;;9.10;91.90;;;;;;5105073;28;20042;-58
2023/02/04 07:06:25;;;;;;;20.73;4.30;;;9.10;91.90;;;;;;5105486;28;20104;-58
2023/02/04 07:08:50;;;;;;;22.77;4.25;;;9.10;92.30;;;;;;5104942;28;20145;-59
2023/02/04 07:11:16;;;;;;;12.70;3.17;;;9.10;92.00;;;;;;5103140;28;20027;-58
2023/02/04 07:13:41;;;;;;;15.98;3.10;;;9.10;92.00;;;;;;5103649;28;20057;-58
2023/02/04 07:16:07;;;;;;;15.27;3.22;;;9.10;92.00;;;;;;5104787;28;20020;-58
2023/02/04 07:18:32;;;;;;;11.52;3.53;;;9.10;92.00;;;;;;5103360;28;20016;-59
2023/02/04 07:20:58;;;;;;;13.50;3.15;;;9.10;92.00;;;;;;5103604;28;20035;-58
2023/02/04 07:23:24;;;;;;;9.52;3.33;;;9.10;92.10;;;;;;5103208;28;20027;-58
2023/02/04 07:25:52;;;;;;;10.68;3.53;;;9.10;92.10;;;;;;5103648;28;20021;-59
2023/02/04 07:28:18;;;;;;;12.98;3.58;;;9.10;92.10;;;;;;5086746;28;20049;-59
2023/02/04 07:30:44;;;;;;;9.55;3.35;;;9.10;92.20;;;;;;5104857;28;20028;-58
2023/02/04 07:33:09;;;;;;;9.98;2.88;;;9.10;92.20;;;;;;5103449;28;20024;-59
2023/02/04 07:35:36;;;;;;;13.00;3.13;;;9.10;92.10;;;;;;5104657;28;20413;-58
2023/02/04 07:38:02;;;;;;;9.63;2.97;;;9.10;92.10;;;;;;5104394;28;20032;-58
2023/02/04 07:40:28;;;;;;;16.70;3.20;;;9.10;92.20;;;;;;5104951;28;20413;-58
2023/02/04 07:42:53;;;;;;;12.10;3.08;;;9.10;92.20;;;;;;5103275;28;20040;-58
2023/02/04 07:45:19;;;;;;;11.30;3.30;;;9.10;92.20;;;;;;5103450;28;20049;-58
2023/02/04 07:47:44;;;;;;;18.25;3.65;;;9.10;92.20;;;;;;5103186;28;20042;-59
2023/02/04 07:50:10;;;;;;;14.00;2.95;;;9.10;92.20;;;;;;5103019;28;20088;-58
2023/02/04 07:52:35;;;;;;;15.23;3.53;;;9.10;92.20;;;;;;5103133;28;20024;-58
2023/02/04 07:55:01;;;;;;;12.35;3.13;;;9.10;92.20;;;;;;5104639;28;20039;-58
2023/02/04 07:57:28;;;;;;;13.40;3.60;;;9.10;92.10;;;;;;5103231;28;20076;-58
2023/02/04 07:59:53;;;;;;;13.48;3.40;;;9.00;92.10;;;;;;5104744;28;20027;-58
2023/02/04 08:02:19;;;;;;;11.48;2.75;;;9.10;92.10;;;;;;5085884;28;20115;-58
2023/02/04 08:04:44;;;;;;;13.05;3.20;;;9.10;92.10;;;;;;5103154;28;20058;-58
2023/02/04 08:07:10;;;;;;;7.57;2.63;;;9.00;92.10;;;;;;5105809;28;20073;-58
2023/02/04 08:09:35;;;;;;;16.10;3.60;;;9.10;92.00;;;;;;5106509;28;20476;-59
2023/02/04 08:12:01;;;;;;;9.23;3.10;;;9.10;92.00;;;;;;5108182;28;20089;-58
2023/02/04 08:14:26;;;;;;;11.18;2.97;;;9.10;92.00;;;;;;5106420;28;20028;-59
2023/02/04 08:16:52;;;;;;;17.58;3.00;;;9.10;92.00;;;;;;5107701;28;20051;-59
2023/02/04 08:19:19;;;;;;;11.48;3.03;;;9.10;92.00;;;;;;5107862;28;20034;-58
2023/02/04 08:21:45;;;;;;;6.50;2.60;;;9.10;92.00;;;;;;5106274;28;20020;-57
2023/02/04 08:24:11;;;;;;;11.88;3.00;;;9.10;92.00;;;;;;5107613;28;20032;-59
2023/02/04 08:26:38;;;;;;;9.75;2.97;;;9.10;91.90;;;;;;5106331;28;20020;-59
2023/02/04 08:29:03;;;;;;;7.55;2.17;;;9.10;91.90;;;;;;5106183;28;20077;-58
2023/02/04 08:31:29;;;;;;;16.20;2.60;;;9.10;91.90;;;;;;5107845;28;20070;-58
2023/02/04 08:33:54;;;;;;;6.47;2.50;;;9.10;91.90;;;;;;5107466;28;20505;-58
2023/02/04 08:36:20;;;;;;;6.05;2.40;;;9.10;91.90;;;;;;5106169;28;20039;-58
2023/02/04 08:38:45;;;;;;;9.30;2.53;;;9.10;91.90;;;;;;5107234;28;20039;-58
2023/02/04 08:41:11;;;;;;;9.00;2.50;;;9.10;91.90;;;;;;5107401;28;20039;-58
2023/02/04 08:43:36;;;;;;;5.93;2.28;;;9.10;91.90;;;;;;5106065;28;20059;-58
2023/02/04 08:46:02;;;;;;;8.93;2.45;;;9.10;91.90;;;;;;5106187;28;20036;-58
2023/02/04 08:48:28;;;;;;;10.43;2.55;;;9.10;91.90;;;;;;5105729;28;20028;-58
2023/02/04 08:50:53;;;;;;;14.57;3.08;;;9.10;91.90;;;;;;5105703;28;20050;-58
2023/02/04 08:53:19;;;;;;;10.45;3.20;;;9.20;91.90;;;;;;5106894;28;20055;-58
2023/02/04 08:55:44;;;;;;;6.30;2.42;;;9.10;92.20;;;;;;5105600;28;20028;-58
2023/02/04 08:58:10;;;;;;;7.80;2.90;;;9.20;91.90;;;;;;5107094;28;20032;-58
2023/02/04 09:00:35;;;;;;;10.98;3.00;;;9.20;91.90;;;;;;5105655;28;20024;-58
2023/02/04 09:03:01;;;;;;;9.52;2.95;;;9.20;92.00;;;;;;5105459;28;20067;-58
2023/02/04 09:05:26;;;;;;;6.40;2.80;;;9.20;92.00;;;;;;5106919;28;20093;-58
2023/02/04 09:07:52;;;;;;;7.35;2.95;;;9.20;92.00;;;;;;5105511;28;20039;-59
2023/02/04 09:10:18;;;;;;;11.18;2.97;;;9.20;92.10;;;;;;5105296;28;20398;-59
2023/02/04 09:12:43;;;;;;;5.22;2.97;;;9.20;92.20;;;;;;5106664;28;20404;-58
2023/02/04 09:15:09;;;;;;;6.43;2.28;;;9.20;92.20;;;;;;5088340;28;20020;-59
2023/02/04 09:17:36;;;;;;;9.50;3.22;;;9.20;92.30;;;;;;5098626;28;20066;-59
2023/02/04 09:20:01;;;;;;;10.55;3.00;;;9.20;92.40;;;;;;5106486;28;20051;-58
2023/02/04 09:22:27;;;;;;;9.75;2.97;;;9.20;92.40;;;;;;5104751;28;20076;-59
2023/02/04 09:24:52;;;;;;;9.27;2.75;;;9.30;92.50;;;;;;5105046;28;20498;-58
2023/02/04 09:27:18;;;;;;;18.63;4.18;;;9.30;92.50;;;;;;5102034;28;20067;-58
2023/02/04 09:29:44;;;;;;;18.88;3.85;;;9.30;92.70;;;;;;5104204;28;20050;-59
2023/02/04 09:32:09;;;;;;;28.30;4.60;;;9.30;92.80;;;;;;5104074;28;20476;-58
2023/02/04 09:34:35;;;;;;;30.70;4.57;;;9.40;92.80;;;;;;5104901;28;20047;-58
2023/02/04 09:37:00;;;;;;;35.42;4.85;;;9.40;92.80;;;;;;5105732;28;20162;-58
2023/02/04 09:39:27;;;;;;;50.17;5.40;;;9.40;92.90;;;;;;5104363;28;20043;-58
2023/02/04 09:41:55;;;;;;;47.22;5.88;;;9.40;93.10;;;;;;5104097;28;20115;-58
2023/02/04 09:44:22;;;;;;;57.63;6.75;;;9.40;93.20;;;;;;5102515;28;20020;-59
2023/02/04 09:46:51;;;;;;;73.35;9.23;;;9.50;93.30;;;;;;5086017;28;20043;-58
2023/02/04 09:49:16;;;;;;;75.30;9.95;;;9.50;93.60;;;;;;5087467;28;20032;-58
2023/02/04 09:51:42;;;;;;;99.35;11.10;;;9.50;93.80;;;;;;5084722;28;20111;-57
2023/02/04 09:54:11;;;;;;;285.63;26.35;;;9.60;94.20;;;;;;5103230;28;20035;-58
2023/02/04 09:56:36;;;;;;;154.23;13.23;;;9.60;94.40;;;;;;5070087;28;20109;-58
2023/02/04 09:59:05;;;;;;;227.68;20.80;;;9.60;94.50;;;;;;5104979;28;20028;-58
2023/02/04 10:01:31;;;;;;;139.85;14.85;;;9.60;94.50;;;;;;5086781;28;20159;-59
2023/02/04 10:03:59;;;;;;;102.53;12.02;;;9.70;94.60;;;;;;5100633;28;20032;-59
2023/02/04 10:06:25;;;;;;;101.47;12.93;;;9.70;94.50;;;;;;5083294;28;20056;-58
2023/02/04 10:08:50;;;;;;;113.03;11.95;;;9.70;94.50;;;;;;5100827;28;20017;-59
2023/02/04 10:11:17;;;;;;;121.38;12.38;;;9.80;94.50;;;;;;5080164;28;20093;-59
2023/02/04 10:13:45;;;;;;;144.35;16.48;;;9.80;94.50;;;;;;5086681;28;20024;-59
2023/02/04 10:16:43;;;;;;;122.70;14.10;;;9.80;94.60;;;;;;5087034;28;20028;-59
2023/02/04 10:19:14;;;;;;;137.50;15.27;;;9.90;94.70;;;;;;5086301;28;20146;-58
2023/02/04 10:21:40;;;;;;;164.50;15.48;;;9.90;94.80;;;;;;5103560;28;20233;-58
2023/02/04 10:24:18;;;;;;;133.77;15.38;;;10.00;94.90;;;;;;5103436;28;20035;-58
2023/02/04 10:26:44;;;;;;;144.18;16.48;;;10.00;94.90;;;;;;5103816;28;20210;-59
2023/02/04 10:29:20;;;;;;;133.13;13.32;;;10.00;94.80;;;;;;5104092;28;20028;-58
2023/02/04 10:31:47;;;;;;;102.30;12.27;;;10.00;94.70;;;;;;5103694;28;20032;-58
2023/02/04 10:34:15;;;;;;;106.32;11.90;;;10.00;94.60;;;;;;5104833;28;20028;-58
2023/02/04 10:36:43;;;;;;;133.15;13.77;;;10.10;94.50;;;;;;5103700;28;20028;-58
2023/02/04 10:39:18;;;;;;;131.45;16.13;;;10.10;94.60;;;;;;5103617;28;20055;-58
2023/02/04 10:41:51;;;;;;;147.15;15.00;;;10.10;94.70;;;;;;5103199;28;20047;-59
2023/02/04 10:44:19;;;;;;;169.57;17.15;;;10.20;94.80;;;;;;5103603;28;20107;-58
2023/02/04 10:46:45;;;;;;;202.75;21.25;;;10.20;95.10;;;;;;5086777;28;20396;-59
2023/02/04 10:49:19;;;;;;;151.25;17.27;;;10.20;95.10;;;;;;5103042;28;20095;-59
2023/02/04 10:51:45;;;;;;;184.85;17.75;;;10.30;95.10;;;;;;5103347;28;20039;-58
2023/02/04 10:54:30;;;;;;;162.93;18.27;;;10.30;95.10;;;;;;5086353;28;20032;-59
2023/02/04 10:57:23;;;;;;;174.95;18.13;;;10.30;95.20;;;;;;5089288;28;20043;-58
2023/02/04 10:59:59;;;;;;;136.70;16.33;;;10.40;95.00;;;;;;5088457;28;20028;-58
2023/02/04 11:02:47;;;;;;;152.85;19.02;;;10.30;95.00;;;;;;5086543;28;20047;-58
2023/02/04 11:05:15;;;;;;;162.73;17.30;;;10.30;95.20;;;;;;5102931;28;20024;-59
2023/02/04 11:07:41;;;;;;;153.25;16.67;;;10.40;95.20;;;;;;5086876;28;20029;-58
2023/02/04 11:10:11;;;;;;;179.15;19.33;;;10.30;95.20;;;;;;5103031;28;20042;-59
2023/02/04 11:12:36;;;;;;;223.43;20.80;;;10.40;95.30;;;;;;5102927;28;20037;-59
2023/02/04 11:15:02;;;;;;;303.77;28.13;;;10.40;95.40;;;;;;5104488;28;20243;-58
2023/02/04 11:17:30;;;;;;;200.02;19.92;;;10.40;95.50;;;;;;5103066;28;20032;-58
2023/02/04 11:19:56;;;;;;;205.70;20.15;;;10.40;95.50;;;;;;5069582;28;20107;-59
2023/02/04 11:22:44;;;;;;;212.00;21.17;;;10.40;95.60;;;;;;5104502;28;20043;-58
2023/02/04 11:25:29;;;;;;;405.10;40.45;;;10.40;95.70;;;;;;5103030;28;20031;-58
2023/02/04 11:27:55;;;;;;;264.63;24.58;;;10.40;95.70;;;;;;5104650;28;20107;-58
2023/02/04 11:30:21;;;;;;;211.23;21.08;;;10.50;95.80;;;;;;5103001;28;20365;-59
2023/02/04 11:33:04;;;;;;;250.48;25.80;;;10.50;95.70;;;;;;5103310;28;20040;-58
2023/02/04 11:35:30;;;;;;;190.88;19.85;;;10.50;95.70;;;;;;5086343;28;20360;-58
2023/02/04 11:37:56;;;;;;;210.20;21.90;;;10.50;95.80;;;;;;5086043;28;20036;-58
2023/02/04 11:40:22;;;;;;;197.40;22.40;;;10.50;95.80;;;;;;5104316;28;20038;-58
2023/02/04 11:42:48;;;;;;;176.25;18.52;;;10.50;95.80;;;;;;5106582;28;20059;-58
2023/02/04 11:45:20;;;;;;;173.15;18.27;;;10.50;95.70;;;;;;5089876;28;20028;-58
2023/02/04 11:47:45;;;;;;;157.77;18.55;;;10.60;95.70;;;;;;5106498;28;20087;-58
2023/02/04 11:50:25;;;;;;;179.40;20.42;;;10.50;95.70;;;;;;5106667;28;20035;-59
2023/02/04 11:52:53;;;;;;;206.70;21.90;;;10.60;96.00;;;;;;5075121;28;20365;-59
2023/02/04 11:55:19;;;;;;;201.85;20.73;;;10.60;96.20;;;;;;5106583;28;20028;-58
2023/02/04 11:57:44;;;;;;;196.27;20.05;;;10.60;96.10;;;;;;5105922;28;20160;-58
2023/02/04 12:00:25;;;;;;;177.45;19.80;;;10.60;96.10;;;;;;5089345;28;20032;-59
2023/02/04 12:03:04;;;;;;;163.93;19.95;;;10.60;96.10;;;;;;5089969;28;20036;-58
2023/02/04 12:05:40;;;;;;;219.13;19.65;;;10.70;96.10;;;;;;5106791;28;20084;-59
2023/02/04 12:08:24;;;;;;;176.82;19.15;;;10.70;96.10;;;;;;5108005;28;20131;-59
2023/02/04 12:10:58;;;;;;;209.65;20.73;;;10.70;96.10;;;;;;5106317;28;20563;-59
2023/02/04 12:13:24;;;;;;;167.05;18.80;;;10.70;96.10;;;;;;5106209;28;20032;-59
2023/02/04 12:16:01;;;;;;;194.48;19.05;;;10.70;96.00;;;;;;5089309;28;20029;-58
2023/02/04 12:18:26;;;;;;;186.55;19.77;;;10.70;96.00;;;;;;5105971;28;20054;-59
2023/02/04 12:20:53;;;;;;;237.85;23.13;;;10.70;96.00;;;;;;5089094;28;20036;-57
2023/02/04 12:23:18;;;;;;;202.10;21.58;;;10.70;96.00;;;;;;5105832;28;20035;-59
2023/02/04 12:25:44;;;;;;;177.65;20.30;;;10.80;96.00;;;;;;5088808;28;20024;-59
2023/02/04 12:28:09;;;;;;;201.45;22.25;;;10.70;96.00;;;;;;5106042;28;20038;-59
2023/02/04 12:30:35;;;;;;;171.15;18.88;;;10.70;96.10;;;;;;5106047;28;20079;-58
2023/02/04 12:33:01;;;;;;;183.75;20.30;;;10.80;96.10;;;;;;5107192;28;20028;-58
2023/02/04 12:35:26;;;;;;;192.40;18.73;;;10.70;96.00;;;;;;5105259;28;20489;-58
2023/02/04 12:37:52;;;;;;;239.32;23.83;;;10.80;96.10;;;;;;5105469;28;20088;-59
2023/02/04 12:40:18;;;;;;;175.07;19.50;;;10.80;96.00;;;;;;5106801;28;20043;-59